createdAt,value
2023-02-24T00:02:30.005Z,79.24
2023-02-24T00:07:33.745Z,79.54
2023-02-24T00:12:37.361Z,79.47
2023-02-24T00:17:41.708Z,79.67
2023-02-24T00:22:45.724Z,79.95
2023-02-24T00:27:49.337Z,80.22
2023-02-24T00:32:52.898Z,80.43
2023-02-24T00:37:56.685Z,80.60
2023-02-24T00:43:00.303Z,80.89
2023-02-24T00:48:04.949Z,81.17
2023-02-24T00:53:08.569Z,81.32
2023-02-24T00:58:12.186Z,81.54
2023-02-24T01:03:15.699Z,81.68
2023-02-24T01:08:22.145Z,82.03
2023-02-24T01:13:25.596Z,82.38
2023-02-24T01:18:31.365Z,82.26
2023-02-24T01:23:35.192Z,81.89
2023-02-24T01:28:38.904Z,82.02
2023-02-24T01:33:45.186Z,82.13
2023-02-24T01:38:52.391Z,82.18
2023-02-24T01:44:03.795Z,82.39
2023-02-24T01:49:37.794Z,82.48
2023-02-24T01:54:49.639Z,82.65
2023-02-24T01:59:55.114Z,82.73
2023-02-24T02:05:05.827Z,82.88
2023-02-24T02:10:10.629Z,83.06
2023-02-24T02:15:20.520Z,83.37
2023-02-24T02:20:27.386Z,83.44
2023-02-24T02:25:55.713Z,83.23
2023-02-24T02:31:40.294Z,83.53
2023-02-24T02:36:54.456Z,83.59
2023-02-24T02:42:25.804Z,83.69
2023-02-24T02:47:43.468Z,83.74
2023-02-24T02:52:57.006Z,84.14
2023-02-24T02:58:05.240Z,84.40
2023-02-24T03:03:14.675Z,84.48
2023-02-24T03:08:23.816Z,84.70
2023-02-24T03:13:30.711Z,84.73
2023-02-24T03:18:39.550Z,84.82
2023-02-24T03:23:51.158Z,84.74
2023-02-24T03:29:06.341Z,84.96
2023-02-24T03:34:19.178Z,85.09
2023-02-24T03:39:23.925Z,85.26
2023-02-24T03:44:29.203Z,85.39
2023-02-24T03:49:32.592Z,85.69
2023-02-24T03:55:02.337Z,86.01
2023-02-24T04:00:34.510Z,86.03
2023-02-24T04:05:57.888Z,86.19
2023-02-24T04:11:10.522Z,86.47
2023-02-24T04:16:29.210Z,86.88
2023-02-24T04:21:34.482Z,86.90
2023-02-24T04:26:42.933Z,87.06
2023-02-24T04:32:02.993Z,87.22
2023-02-24T04:37:06.713Z,87.29
2023-02-24T04:42:11.241Z,87.48
2023-02-24T04:47:14.862Z,87.60
2023-02-24T04:52:21.042Z,87.90
2023-02-24T04:57:25.482Z,88.03
2023-02-24T05:02:28.991Z,88.15
2023-02-24T05:07:32.508Z,88.20
2023-02-24T05:12:35.922Z,88.65
2023-02-24T05:17:40.993Z,88.82
2023-02-24T05:22:44.495Z,89.11
2023-02-24T05:27:48.014Z,89.14
2023-02-24T05:32:54.490Z,89.46
2023-02-24T05:37:59.375Z,89.49
2023-02-24T05:43:05.117Z,90.01
2023-02-24T05:48:09.332Z,89.97
2023-02-24T05:53:16.026Z,89.97
2023-02-24T05:58:19.644Z,90.14
2023-02-24T06:03:31.243Z,90.43
2023-02-24T06:08:42.717Z,90.50
2023-02-24T06:13:50.217Z,90.55
2023-02-24T06:18:56.845Z,90.51
2023-02-24T06:24:01.179Z,90.88
2023-02-24T06:29:05.829Z,90.82
2023-02-24T06:34:11.298Z,90.90
2023-02-24T06:39:15.232Z,90.88
2023-02-24T06:44:19.674Z,90.84
2023-02-24T06:49:23.271Z,91.22
2023-02-24T06:54:31.170Z,91.42
2023-02-24T06:59:34.611Z,91.59
2023-02-24T07:04:44.016Z,91.19
2023-02-24T07:09:47.772Z,91.46
2023-02-24T07:14:51.389Z,91.68
2023-02-24T07:19:54.910Z,91.84
2023-02-24T07:25:01.804Z,91.84
2023-02-24T07:30:10.137Z,91.68
2023-02-24T07:35:14.735Z,91.57
2023-02-24T07:40:22.237Z,91.58
2023-02-24T07:45:25.843Z,91.57
2023-02-24T07:50:33.113Z,91.66
2023-02-24T07:55:36.913Z,91.31
2023-02-24T08:00:59.703Z,91.59
2023-02-24T08:06:15.792Z,91.57
2023-02-24T08:11:25.252Z,91.63
2023-02-24T08:16:39.738Z,91.89
2023-02-24T08:21:47.765Z,91.35
2023-02-24T08:27:07.140Z,91.37
2023-02-24T08:32:11.256Z,91.59
2023-02-24T08:37:16.002Z,91.64
2023-02-24T08:42:20.545Z,91.52
2023-02-24T08:47:31.331Z,92.04
2023-02-24T08:52:35.156Z,91.62
2023-02-24T08:57:38.677Z,91.56
2023-02-24T09:02:42.804Z,91.51
2023-02-24T09:07:54.950Z,91.62
2023-02-24T09:12:58.962Z,91.09
2023-02-24T09:18:07.707Z,91.27
2023-02-24T09:23:20.449Z,90.68
2023-02-24T09:28:26.899Z,90.62
2023-02-24T09:33:42.044Z,90.37
2023-02-24T09:39:00.954Z,90.52
2023-02-24T09:44:18.790Z,90.40
2023-02-24T09:49:40.346Z,90.35
2023-02-24T09:55:23.916Z,90.25
2023-02-24T10:00:33.819Z,89.72
2023-02-24T10:05:49.447Z,89.41
2023-02-24T10:11:09.683Z,89.21
2023-02-24T10:16:24.299Z,89.13
2023-02-24T10:21:49.819Z,88.82
2023-02-24T10:27:18.279Z,88.99
2023-02-24T10:32:32.044Z,88.96
2023-02-24T10:37:35.562Z,88.74
2023-02-24T10:42:49.127Z,88.88
2023-02-24T10:48:08.931Z,88.78
2023-02-24T10:53:35.067Z,88.77
2023-02-24T10:58:44.927Z,88.77
2023-02-24T11:04:01.884Z,88.49
2023-02-24T11:09:24.105Z,88.45
2023-02-24T11:14:46.260Z,88.63
2023-02-24T11:19:56.840Z,88.43
2023-02-24T11:25:11.921Z,88.35
2023-02-24T11:30:26.619Z,88.26
2023-02-24T11:35:46.298Z,88.22
2023-02-24T11:40:58.926Z,88.23
2023-02-24T11:46:31.487Z,88.05
2023-02-24T11:51:38.001Z,87.81
2023-02-24T11:56:49.304Z,87.48
2023-02-24T12:01:57.225Z,86.53
2023-02-24T12:07:25.253Z,86.18
2023-02-24T12:12:54.163Z,86.06
2023-02-24T12:18:20.270Z,85.59
2023-02-24T12:23:30.748Z,84.84
2023-02-24T12:28:41.332Z,83.89
2023-02-24T12:34:03.492Z,83.71
2023-02-24T12:39:16.320Z,83.21
2023-02-24T12:44:27.699Z,82.33
2023-02-24T12:49:44.027Z,81.25
2023-02-24T12:55:01.262Z,80.43
2023-02-24T13:00:25.762Z,79.93
2023-02-24T13:05:29.390Z,78.18
2023-02-24T13:11:05.878Z,78.42
2023-02-24T13:16:12.504Z,77.40
2023-02-24T13:21:25.001Z,77.77
2023-02-24T13:26:31.866Z,76.84
2023-02-24T13:32:01.296Z,76.49
2023-02-24T13:37:05.030Z,76.79
2023-02-24T13:42:24.323Z,76.60
2023-02-24T13:47:45.857Z,76.38
2023-02-24T13:53:23.993Z,76.38
2023-02-24T13:58:55.367Z,76.39
2023-02-24T14:04:36.347Z,76.70
2023-02-24T14:09:51.846Z,76.58
2023-02-24T14:14:56.801Z,76.88
2023-02-24T14:20:18.128Z,76.61
2023-02-24T14:25:26.874Z,76.47
2023-02-24T14:30:41.311Z,76.52
2023-02-24T14:35:48.441Z,76.33
2023-02-24T14:40:51.960Z,76.16
2023-02-24T14:45:57.789Z,76.12
2023-02-24T14:51:35.778Z,76.19
2023-02-24T14:56:41.626Z,76.47
2023-02-24T15:02:05.392Z,76.51
2023-02-24T15:08:07.435Z,76.43
2023-02-24T15:13:19.100Z,76.36
2023-02-24T15:18:28.977Z,76.45
2023-02-24T15:23:37.404Z,76.74
2023-02-24T15:28:40.907Z,76.47
2023-02-24T15:33:47.403Z,76.58
2023-02-24T15:39:01.050Z,76.60
2023-02-24T15:44:04.665Z,76.67
2023-02-24T15:49:08.179Z,76.70
2023-02-24T15:54:15.275Z,76.73
2023-02-24T15:59:22.296Z,76.56
2023-02-24T16:04:27.790Z,76.54
2023-02-24T16:09:38.634Z,76.44
2023-02-24T16:14:43.163Z,76.32
2023-02-24T16:19:46.372Z,76.30
2023-02-24T16:24:50.195Z,76.39
2023-02-24T16:29:53.708Z,76.53
2023-02-24T16:34:57.579Z,76.63
2023-02-24T16:40:00.986Z,76.80
2023-02-24T16:45:05.075Z,76.99
2023-02-24T16:50:18.323Z,77.12
2023-02-24T16:55:22.243Z,77.31
2023-02-24T17:00:26.066Z,77.05
2023-02-24T17:05:29.482Z,77.40
2023-02-24T17:10:33.922Z,77.46
2023-02-24T17:15:37.544Z,77.50
2023-02-24T17:20:42.657Z,77.56
2023-02-24T17:25:52.149Z,77.48
2023-02-24T17:30:55.968Z,77.75
2023-02-24T17:36:00.017Z,77.84
2023-02-24T17:41:03.619Z,77.85
2023-02-24T17:46:07.473Z,78.04
2023-02-24T17:51:18.885Z,77.89
2023-02-24T17:56:22.635Z,77.87
2023-02-24T18:01:27.419Z,78.03
2023-02-24T18:06:30.608Z,78.03
2023-02-24T18:11:34.125Z,78.08
2023-02-24T18:16:37.827Z,78.12
2023-02-24T18:21:41.565Z,78.28
2023-02-24T18:26:45.121Z,78.25
2023-02-24T18:31:48.736Z,78.37
2023-02-24T18:36:53.653Z,78.44
2023-02-24T18:41:59.525Z,78.48
2023-02-24T18:47:09.740Z,78.59
2023-02-24T18:52:13.624Z,78.76
2023-02-24T18:57:17.035Z,78.95
2023-02-24T19:02:20.550Z,79.02
2023-02-24T19:14:19.099Z,79.11
2023-02-24T19:19:23.129Z,79.04
2023-02-24T19:24:26.745Z,78.99
2023-02-24T19:29:30.393Z,78.79
2023-02-24T19:34:33.873Z,78.92
2023-02-24T19:39:37.526Z,78.98
2023-02-24T19:44:41.221Z,79.19
2023-02-24T19:49:44.837Z,79.28
2023-02-24T19:54:48.598Z,79.39
2023-02-24T19:59:52.374Z,79.62
2023-02-24T20:04:55.834Z,79.70
2023-02-24T20:09:59.605Z,79.57
2023-02-24T20:15:04.282Z,79.75
2023-02-24T20:20:08.491Z,79.82
2023-02-24T20:25:12.815Z,80.05
2023-02-24T20:30:16.847Z,80.00
2023-02-24T20:35:21.337Z,79.94
2023-02-24T20:40:24.905Z,80.22
2023-02-24T20:45:29.138Z,80.32
2023-02-24T20:50:32.662Z,80.29
2023-02-24T20:55:36.574Z,80.18
2023-02-24T21:00:40.803Z,80.37
2023-02-24T21:05:45.075Z,80.57
2023-02-24T21:10:48.554Z,80.46
2023-02-24T21:15:56.299Z,80.55
2023-02-24T21:21:00.188Z,80.57
2023-02-24T21:26:04.251Z,80.76
2023-02-24T21:31:13.550Z,80.81
2023-02-24T21:36:17.194Z,80.92
2023-02-24T21:41:21.189Z,80.83
2023-02-24T21:46:28.769Z,80.94
2023-02-24T21:51:33.780Z,80.83
2023-02-24T21:56:37.291Z,80.86
2023-02-24T22:01:45.191Z,81.02
2023-02-24T22:06:48.837Z,80.84
2023-02-24T22:11:52.442Z,80.96
2023-02-24T22:16:55.856Z,81.07
2023-02-24T22:22:00.191Z,81.26
2023-02-24T22:27:04.115Z,81.25
2023-02-24T22:32:07.697Z,81.14
2023-02-24T22:37:11.597Z,81.16
2023-02-24T22:42:15.077Z,81.30
2023-02-24T22:47:18.591Z,81.36
2023-02-24T22:52:22.210Z,81.34
2023-02-24T22:57:25.828Z,81.25
2023-02-24T23:02:29.342Z,81.24
2023-02-24T23:07:33.989Z,81.29
2023-02-24T23:12:37.914Z,81.19
2023-02-24T23:17:41.525Z,81.27
2023-02-24T23:22:45.554Z,81.32
2023-02-24T23:27:49.917Z,81.25
2023-02-24T23:32:53.322Z,81.33
2023-02-24T23:37:57.023Z,81.43
2023-02-24T23:43:01.561Z,81.62
2023-02-24T23:48:05.493Z,81.66
2023-02-24T23:53:09.420Z,81.70
2023-02-24T23:58:13.031Z,81.92
